Dorothy, New Jersey
Current Conditions -  °F | °C
As of 12:54 AM on Friday 31 Oct 2014 (Local Time) from KMIV Reporting Station
Clear Clear  
Wind Chill: 37°   Ceiling: Unl
Heat Index: 37°   Visibility: 10mi
Dew Point: 35°   Wind: 0mph
Humidity: 93%   Direction: NA
Pressure: 30.03"   Gusts: NA
Location:  39.4°N, 74.82°W
Report Text: KMIV 310454Z AUTO 00000KT 10SM CLR 03/02 A3003 RMK AO2 SLP168 T00280017 401610028
Loading
Personal Weather Stations






























Interactive Weather Map
Tropical Storm Tracking
New forecast layout! Learn more

10-Day Weather Forecast

Advertisements
Track Severe Weather on mobile